Portada
METAR-TAF:

METAR-TAF

Aeroports :

Kulu / Manali, Índia

latitud: 31-52-36N, longitud: 77-09-16E, altitud: 1089 m

METAR: manca

Hora: 06:58 (01:28 UTC)

Pronòstic

L'informe es va fer fa 20 hores i 28 minuts, a les 05:00 UTC
Pronòstic vàlid del 29 a les 06 UTC al 29 a les 15 UTC
Vent 5 kt del Nord-Est
Visibilitat: 5000 m
Núvols disperses a una alçada de 3000 ft
Cel ennuvolat a una alçada de 9000 ft
calitja, boirina
Temporalment
l' 29 a les 08 UTC al 29 a les 12 UTC
Escasses núvols a una alçada de 3500 ft, Cumulonimbus.

TAF: VIBR 290500Z 2906/2915 05005KT 5000 HZ BR SCT030 BKN090 TEMPO 2908/2912 FEW035CB

Observacions i pronòstics meteorològics de més de 4000 aeroports (METAR i TAF).

Les estacions disponibles són els punts grocs i vermells al mapa.

Posi el ratolí al punt desitjat per veure el nom de l'estació.

Feu clic per veure les observacions i els pronòstics meteorològics.

Per canviar el mapa: feu clic els botons verds amb una creu de color negre per apropar; al botó verd amb un guió per allunyar la imatge; o en les fletxes verdes per a mapes adjacents.


METAR-TAF: